createdAt,value
2022-09-21T00:00:51.879Z,22.50
2022-09-21T00:03:18.857Z,21.90
2022-09-21T00:05:45.688Z,21.77
2022-09-21T00:08:13.910Z,22.40
2022-09-21T00:10:40.387Z,25.55
2022-09-21T00:13:08.304Z,22.25
2022-09-21T00:15:34.929Z,24.27
2022-09-21T00:18:01.788Z,22.58
2022-09-21T00:20:29.134Z,24.65
2022-09-21T00:22:55.562Z,24.30
2022-09-21T00:25:21.925Z,26.95
2022-09-21T00:27:51.154Z,27.42
2022-09-21T00:30:18.189Z,24.58
2022-09-21T00:32:44.698Z,27.67
2022-09-21T00:35:11.053Z,25.40
2022-09-21T00:37:37.554Z,26.02
2022-09-21T00:40:04.675Z,26.20
2022-09-21T00:42:34.136Z,27.73
2022-09-21T00:45:01.092Z,27.77
2022-09-21T00:47:40.536Z,32.40
2022-09-21T00:50:11.884Z,36.93
2022-09-21T00:52:43.731Z,26.42
2022-09-21T00:55:23.815Z,27.65
2022-09-21T00:57:56.682Z,30.92
2022-09-21T01:00:23.368Z,32.80
2022-09-21T01:02:49.800Z,27.80
2022-09-21T01:05:16.147Z,25.38
2022-09-21T01:07:46.198Z,26.02
2022-09-21T01:10:17.524Z,24.70
2022-09-21T01:12:50.002Z,27.10
2022-09-21T01:15:36.577Z,24.73
2022-09-21T01:18:17.984Z,24.33
2022-09-21T01:21:09.022Z,24.20
2022-09-21T01:23:38.400Z,25.67
2022-09-21T01:26:29.791Z,25.27
2022-09-21T01:29:02.182Z,26.33
2022-09-21T01:31:35.190Z,30.42
2022-09-21T01:34:12.246Z,24.77
2022-09-21T01:36:41.960Z,25.27
2022-09-21T01:39:13.103Z,26.05
2022-09-21T01:41:44.377Z,29.48
2022-09-21T01:44:17.462Z,28.63
2022-09-21T01:46:46.324Z,26.88
2022-09-21T01:49:29.684Z,25.75
2022-09-21T01:52:02.338Z,28.15
2022-09-21T01:54:38.074Z,28.63
2022-09-21T01:57:16.202Z,32.40
2022-09-21T02:00:05.602Z,27.50
2022-09-21T02:02:38.500Z,27.57
2022-09-21T02:05:06.396Z,28.77
2022-09-21T02:07:34.632Z,37.38
2022-09-21T02:10:03.546Z,30.23
2022-09-21T02:12:32.954Z,30.15
2022-09-21T02:15:00.600Z,29.80
2022-09-21T02:17:41.123Z,30.27
2022-09-21T02:20:07.694Z,30.75
2022-09-21T02:23:03.468Z,30.75
2022-09-21T02:25:48.737Z,29.42
2022-09-21T02:28:47.423Z,31.05
2022-09-21T02:31:23.035Z,30.45
2022-09-21T02:34:10.531Z,30.08
2022-09-21T02:36:49.003Z,32.00
2022-09-21T02:39:19.531Z,31.33
2022-09-21T02:42:05.888Z,31.52
2022-09-21T02:44:46.378Z,31.17
2022-09-21T02:47:22.173Z,31.13
2022-09-21T02:49:54.704Z,30.92
2022-09-21T02:52:23.419Z,37.28
2022-09-21T02:54:53.689Z,31.08
2022-09-21T02:59:48.580Z,28.38
2022-09-21T03:02:15.453Z,28.33
2022-09-21T03:04:47.099Z,28.13
2022-09-21T03:07:15.578Z,35.45
2022-09-21T03:09:42.119Z,34.60
2022-09-21T03:12:08.591Z,29.42
2022-09-21T03:14:34.995Z,46.40
2022-09-21T03:17:01.396Z,36.15
2022-09-21T03:19:29.311Z,36.92
2022-09-21T03:21:55.665Z,41.53
2022-09-21T03:24:40.778Z,33.80
2022-09-21T03:27:08.805Z,36.40
2022-09-21T03:29:35.258Z,48.72
2022-09-21T03:32:01.859Z,62.50
2022-09-21T03:34:28.194Z,103.22
2022-09-21T03:36:55.054Z,77.90
2022-09-21T03:39:21.468Z,209.02
2022-09-21T03:41:48.110Z,158.75
2022-09-21T03:44:16.332Z,100.55
2022-09-21T03:46:42.873Z,147.93
2022-09-21T03:49:09.382Z,248.80
2022-09-21T03:51:35.749Z,50.90
2022-09-21T03:54:02.114Z,86.43
2022-09-21T03:56:28.701Z,117.85
2022-09-21T03:58:55.173Z,244.02
2022-09-21T04:01:21.603Z,137.07
2022-09-21T04:03:48.016Z,215.52
2022-09-21T04:06:14.758Z,46.63
2022-09-21T04:08:42.392Z,45.20
2022-09-21T04:11:11.829Z,38.20
2022-09-21T04:13:38.642Z,68.85
2022-09-21T04:16:05.591Z,40.70
2022-09-21T04:18:32.393Z,73.20
2022-09-21T04:20:59.243Z,44.58
2022-09-21T04:23:25.614Z,29.52
2022-09-21T04:25:54.092Z,30.80
2022-09-21T04:28:21.533Z,33.67
2022-09-21T04:30:48.011Z,32.17
2022-09-21T04:33:14.898Z,52.70
2022-09-21T04:35:41.214Z,32.38
2022-09-21T04:38:07.702Z,32.83
2022-09-21T04:40:34.110Z,32.42
2022-09-21T04:43:00.920Z,33.17
2022-09-21T04:45:27.284Z,34.00
2022-09-21T04:47:53.695Z,33.35
2022-09-21T04:50:20.384Z,49.25
2022-09-21T04:52:47.624Z,81.85
2022-09-21T04:55:14.028Z,86.95
2022-09-21T04:57:40.439Z,114.32
2022-09-21T05:00:07.606Z,55.45
2022-09-21T05:02:34.050Z,66.10
2022-09-21T05:05:00.495Z,52.58
2022-09-21T05:07:26.838Z,102.00
2022-09-21T05:10:05.299Z,75.40
2022-09-21T05:12:33.250Z,52.10
2022-09-21T05:14:59.796Z,63.25
2022-09-21T05:17:26.202Z,66.43
2022-09-21T05:19:53.651Z,39.45
2022-09-21T05:22:20.604Z,41.30
2022-09-21T05:24:47.733Z,51.40
2022-09-21T05:27:14.446Z,47.85
2022-09-21T05:29:41.700Z,43.67
2022-09-21T05:32:13.889Z,84.07
2022-09-21T05:34:48.030Z,59.85
2022-09-21T05:37:17.114Z,66.95
2022-09-21T05:39:43.730Z,121.45
2022-09-21T05:42:10.883Z,95.75
2022-09-21T05:44:37.788Z,110.15
2022-09-21T05:47:10.889Z,78.57
2022-09-21T05:49:49.083Z,86.45
2022-09-21T05:52:41.691Z,67.13
2022-09-21T05:55:45.025Z,87.40
2022-09-21T05:58:28.334Z,47.38
2022-09-21T06:01:13.998Z,43.85
2022-09-21T06:03:42.222Z,44.55
2022-09-21T06:06:10.147Z,36.08
2022-09-21T06:08:36.532Z,44.58
2022-09-21T06:11:03.073Z,37.35
2022-09-21T06:13:29.466Z,39.47
2022-09-21T06:15:55.807Z,38.00
2022-09-21T06:18:22.161Z,39.45
2022-09-21T06:20:48.525Z,39.53
2022-09-21T06:23:15.568Z,38.88
2022-09-21T06:25:41.983Z,55.92
2022-09-21T06:28:11.276Z,46.22
2022-09-21T06:30:39.366Z,42.50
2022-09-21T06:33:07.233Z,42.10
2022-09-21T06:35:35.445Z,48.50
2022-09-21T06:38:04.942Z,60.30
2022-09-21T06:40:32.562Z,44.55
2022-09-21T06:43:00.526Z,41.55
2022-09-21T06:45:28.033Z,41.83
2022-09-21T06:47:54.502Z,69.07
2022-09-21T06:50:21.689Z,52.90
2022-09-21T06:52:48.150Z,45.72
2022-09-21T06:55:15.039Z,43.15
2022-09-21T06:57:41.412Z,49.65
2022-09-21T07:00:10.795Z,47.58
2022-09-21T07:02:37.289Z,42.30
2022-09-21T07:05:04.622Z,44.10
2022-09-21T07:07:31.549Z,43.85
2022-09-21T07:10:12.088Z,42.95
2022-09-21T07:12:41.354Z,42.53
2022-09-21T07:15:10.329Z,42.33
2022-09-21T07:17:38.643Z,42.63
2022-09-21T07:20:07.735Z,43.05
2022-09-21T07:22:34.353Z,44.08
2022-09-21T07:25:01.534Z,42.45
2022-09-21T07:27:29.687Z,43.90
2022-09-21T07:29:56.073Z,44.10
2022-09-21T07:32:22.512Z,46.22
2022-09-21T07:34:49.192Z,43.00
2022-09-21T07:37:16.133Z,43.53
2022-09-21T07:39:42.510Z,47.28
2022-09-21T07:42:08.953Z,45.78
2022-09-21T07:44:35.359Z,45.45
2022-09-21T07:47:03.471Z,45.03
2022-09-21T07:49:30.597Z,44.33
2022-09-21T07:52:01.396Z,44.30
2022-09-21T07:54:30.435Z,45.50
2022-09-21T07:57:15.666Z,44.45
2022-09-21T07:59:42.040Z,45.40
2022-09-21T08:02:08.488Z,45.85
2022-09-21T08:04:34.974Z,44.45
2022-09-21T08:07:01.341Z,43.70
2022-09-21T08:09:27.661Z,48.45
2022-09-21T08:11:55.696Z,44.63
2022-09-21T08:14:26.127Z,45.22
2022-09-21T08:16:53.376Z,40.40
2022-09-21T08:19:20.553Z,40.42
2022-09-21T08:21:53.506Z,39.92
2022-09-21T08:24:22.885Z,36.85
2022-09-21T08:26:52.112Z,34.25
2022-09-21T08:29:18.773Z,35.60
2022-09-21T08:31:46.538Z,34.28
2022-09-21T08:34:13.177Z,33.15
2022-09-21T08:36:39.836Z,31.48
2022-09-21T08:39:07.955Z,30.65
2022-09-21T08:41:40.550Z,28.75
2022-09-21T08:44:20.964Z,27.70
2022-09-21T08:47:09.598Z,27.20
2022-09-21T08:49:40.252Z,24.92
2022-09-21T08:52:15.660Z,24.13
2022-09-21T08:54:57.086Z,22.13
2022-09-21T08:57:29.137Z,23.00
2022-09-21T08:59:55.763Z,21.65
2022-09-21T09:02:47.623Z,19.17
2022-09-21T09:05:23.069Z,18.77
2022-09-21T09:07:53.154Z,17.23
2022-09-21T09:10:39.538Z,17.13
2022-09-21T09:13:20.874Z,15.95
2022-09-21T09:15:53.186Z,14.10
2022-09-21T09:18:42.755Z,13.23
2022-09-21T09:23:51.676Z,12.52
2022-09-21T09:26:47.622Z,12.27
2022-09-21T09:29:47.874Z,12.55
2022-09-21T09:34:53.752Z,12.18
2022-09-21T09:37:30.153Z,12.45
2022-09-21T09:40:00.264Z,13.05
2022-09-21T09:43:01.289Z,12.35
2022-09-21T09:45:43.486Z,12.05
2022-09-21T09:48:27.045Z,12.35
2022-09-21T09:50:53.437Z,12.13
2022-09-21T09:53:23.864Z,11.70
2022-09-21T09:55:52.480Z,11.52
2022-09-21T09:58:27.950Z,10.80
2022-09-21T10:00:57.697Z,10.68
2022-09-21T10:03:27.290Z,10.82
2022-09-21T10:05:54.891Z,10.30
2022-09-21T10:08:36.299Z,10.70
2022-09-21T10:11:03.726Z,9.98
2022-09-21T10:13:37.767Z,10.05
2022-09-21T10:16:23.635Z,10.10
2022-09-21T10:18:57.310Z,9.93
2022-09-21T10:21:26.841Z,9.60
2022-09-21T10:23:59.329Z,9.63
2022-09-21T10:26:38.779Z,9.75
2022-09-21T10:29:23.322Z,9.32
2022-09-21T10:32:03.469Z,10.15
2022-09-21T10:34:32.290Z,10.52
2022-09-21T10:37:02.118Z,10.07
2022-09-21T10:39:31.154Z,10.18
2022-09-21T10:42:00.495Z,10.30
2022-09-21T10:44:35.080Z,10.07
2022-09-21T10:47:16.803Z,10.73
2022-09-21T10:49:48.247Z,11.15
2022-09-21T10:52:14.813Z,10.80
2022-09-21T10:54:41.993Z,10.77
2022-09-21T10:57:14.837Z,10.93
2022-09-21T10:59:41.363Z,10.98
2022-09-21T11:02:26.640Z,10.55
2022-09-21T11:05:07.994Z,11.00
2022-09-21T11:07:41.219Z,11.43
2022-09-21T11:10:34.170Z,11.63
2022-09-21T11:13:18.791Z,12.25
2022-09-21T11:16:01.902Z,11.77
2022-09-21T11:18:46.696Z,11.73
2022-09-21T11:21:27.355Z,11.35
2022-09-21T11:24:31.802Z,11.32
2022-09-21T11:27:28.182Z,11.88
2022-09-21T11:30:01.748Z,11.13
2022-09-21T11:33:05.315Z,10.95
2022-09-21T11:35:58.660Z,10.57
2022-09-21T11:38:39.907Z,11.73
2022-09-21T11:41:36.250Z,10.90
2022-09-21T11:44:17.066Z,11.07
2022-09-21T11:47:12.279Z,11.23
2022-09-21T11:49:47.518Z,10.75
2022-09-21T11:52:26.287Z,10.45
2022-09-21T11:55:14.984Z,10.55
2022-09-21T11:57:55.083Z,10.77
2022-09-21T12:00:23.197Z,11.43
2022-09-21T12:03:19.400Z,11.50
2022-09-21T12:05:58.223Z,11.40
2022-09-21T12:08:55.322Z,11.03
2022-09-21T12:11:27.749Z,11.82
2022-09-21T12:14:09.511Z,11.68
2022-09-21T12:16:44.089Z,11.40
2022-09-21T12:19:23.935Z,10.82
2022-09-21T12:24:32.121Z,11.35
2022-09-21T12:27:05.369Z,11.60
2022-09-21T12:29:47.637Z,11.23
2022-09-21T12:32:56.196Z,11.60
2022-09-21T12:35:49.673Z,11.73
2022-09-21T12:38:27.554Z,11.52
2022-09-21T12:41:16.293Z,11.52
2022-09-21T12:43:55.089Z,11.18
2022-09-21T12:46:26.137Z,10.95
2022-09-21T12:48:53.014Z,11.65
2022-09-21T12:51:34.457Z,10.70
2022-09-21T12:54:19.705Z,10.35
2022-09-21T12:57:29.750Z,10.57
2022-09-21T13:00:15.902Z,10.95
2022-09-21T13:03:11.406Z,10.73
2022-09-21T13:06:20.212Z,10.90
2022-09-21T13:11:21.822Z,10.18
2022-09-21T13:13:53.260Z,10.75
2022-09-21T13:16:29.767Z,10.45
2022-09-21T13:19:02.265Z,10.50
2022-09-21T13:21:32.046Z,11.43
2022-09-21T13:23:58.365Z,10.25
2022-09-21T13:26:51.733Z,11.07
2022-09-21T13:29:20.692Z,10.27
2022-09-21T13:32:10.759Z,10.77
2022-09-21T13:34:42.570Z,11.05
2022-09-21T13:37:14.436Z,10.15
2022-09-21T13:40:02.402Z,10.20
2022-09-21T13:42:34.808Z,10.20
2022-09-21T13:45:04.709Z,12.45
2022-09-21T13:47:38.451Z,10.35
2022-09-21T13:50:12.542Z,11.40
2022-09-21T13:52:51.964Z,10.90
2022-09-21T13:55:29.409Z,9.98
2022-09-21T13:57:58.839Z,9.93
2022-09-21T14:00:33.476Z,9.68
2022-09-21T14:03:04.668Z,9.90
2022-09-21T14:05:45.155Z,9.23
2022-09-21T14:08:14.471Z,9.60
2022-09-21T14:10:50.399Z,8.77
2022-09-21T14:13:26.958Z,9.05
2022-09-21T14:15:53.371Z,9.05
2022-09-21T14:18:34.906Z,9.02
2022-09-21T14:21:09.370Z,9.07
2022-09-21T14:23:37.818Z,8.77
2022-09-21T14:26:43.768Z,8.45
2022-09-21T14:29:38.438Z,9.52
2022-09-21T14:32:14.148Z,9.75
2022-09-21T14:34:44.523Z,9.77
2022-09-21T14:37:28.880Z,10.00
2022-09-21T14:39:56.846Z,9.68
2022-09-21T14:42:28.137Z,10.82
2022-09-21T14:45:02.299Z,9.93
2022-09-21T14:47:48.055Z,9.82
2022-09-21T14:50:19.556Z,10.15
2022-09-21T14:53:32.470Z,10.50
2022-09-21T14:56:22.564Z,9.90
2022-09-21T14:59:15.858Z,9.43
2022-09-21T15:01:58.773Z,10.07
2022-09-21T15:04:39.183Z,9.57
2022-09-21T15:07:52.345Z,9.55
2022-09-21T15:10:59.893Z,11.15
2022-09-21T15:13:46.514Z,10.18
2022-09-21T15:16:25.899Z,9.98
2022-09-21T15:19:05.852Z,9.88
2022-09-21T15:24:10.092Z,9.98
2022-09-21T15:26:40.745Z,9.82
2022-09-21T15:29:10.683Z,9.70
2022-09-21T15:31:42.570Z,8.82
2022-09-21T15:34:10.930Z,8.65
2022-09-21T15:36:40.719Z,9.07
2022-09-21T15:39:20.499Z,8.70
2022-09-21T15:41:50.546Z,8.57
2022-09-21T15:44:21.510Z,8.55
2022-09-21T15:46:51.653Z,9.48
2022-09-21T15:49:22.863Z,8.40
2022-09-21T15:51:57.142Z,8.40
2022-09-21T15:54:30.499Z,8.70
2022-09-21T15:57:04.685Z,8.52
2022-09-21T15:59:34.626Z,8.30
2022-09-21T16:02:12.430Z,8.68
2022-09-21T16:04:49.358Z,8.73
2022-09-21T16:07:34.280Z,9.25
2022-09-21T16:10:02.531Z,9.20
2022-09-21T16:12:38.257Z,8.60
2022-09-21T16:15:15.310Z,9.10
2022-09-21T16:17:55.006Z,9.55
2022-09-21T16:20:23.500Z,9.10
2022-09-21T16:22:55.328Z,9.00
2022-09-21T16:25:35.147Z,9.77
2022-09-21T16:28:07.125Z,9.48
2022-09-21T16:30:51.152Z,10.20
2022-09-21T16:33:49.228Z,9.35
2022-09-21T16:36:25.506Z,8.77
2022-09-21T16:38:56.159Z,9.05
2022-09-21T16:41:25.256Z,9.55
2022-09-21T16:43:52.062Z,9.32
2022-09-21T16:46:18.853Z,8.95
2022-09-21T16:48:45.295Z,9.15
2022-09-21T16:51:13.545Z,9.07
2022-09-21T16:53:40.175Z,9.43
2022-09-21T16:56:15.296Z,10.10
2022-09-21T16:58:43.609Z,10.80
2022-09-21T17:01:12.918Z,10.20
2022-09-21T17:03:42.673Z,9.87
2022-09-21T17:06:17.794Z,10.13
2022-09-21T17:08:48.129Z,10.15
2022-09-21T17:11:23.043Z,10.55
2022-09-21T17:13:50.372Z,10.43
2022-09-21T17:16:18.549Z,10.35
2022-09-21T17:18:45.991Z,10.43
2022-09-21T17:21:12.969Z,10.45
2022-09-21T17:23:40.047Z,11.32
2022-09-21T17:26:17.544Z,10.85
2022-09-21T17:28:44.956Z,11.85
2022-09-21T17:31:13.821Z,10.15
2022-09-21T17:33:40.738Z,10.00
2022-09-21T17:36:16.112Z,10.48
2022-09-21T17:38:43.526Z,11.88
2022-09-21T17:41:43.154Z,11.55
2022-09-21T17:44:28.570Z,12.18
2022-09-21T17:46:58.613Z,11.45
2022-09-21T17:49:25.805Z,12.48
2022-09-21T17:52:10.973Z,11.57
2022-09-21T17:54:39.799Z,11.00
2022-09-21T17:57:28.420Z,10.93
2022-09-21T18:00:04.211Z,10.82
2022-09-21T18:02:30.665Z,36.63
2022-09-21T18:05:04.517Z,35.95
2022-09-21T18:07:31.218Z,24.33
2022-09-21T18:09:57.847Z,17.20
2022-09-21T18:12:50.785Z,19.55
2022-09-21T18:15:27.630Z,15.27
2022-09-21T18:18:12.693Z,15.48
2022-09-21T18:21:03.590Z,18.30
2022-09-21T18:23:48.545Z,15.35
2022-09-21T18:26:18.198Z,13.20
2022-09-21T18:28:47.629Z,15.52
2022-09-21T18:31:51.963Z,15.20
2022-09-21T18:34:54.627Z,14.30
2022-09-21T18:37:32.121Z,13.70
2022-09-21T18:40:21.800Z,13.90
2022-09-21T18:43:26.089Z,12.27
2022-09-21T18:46:01.210Z,12.90
2022-09-21T18:48:39.637Z,15.98
2022-09-21T18:51:39.402Z,13.40
2022-09-21T18:54:11.655Z,14.27
2022-09-21T18:56:39.164Z,14.13
2022-09-21T18:59:07.066Z,12.73
2022-09-21T19:01:34.200Z,15.23
2022-09-21T19:04:01.364Z,13.45
2022-09-21T19:06:47.331Z,13.88
2022-09-21T19:09:57.284Z,14.90
2022-09-21T19:12:23.826Z,15.98
2022-09-21T19:15:01.882Z,17.80
2022-09-21T19:18:05.980Z,16.88
2022-09-21T19:20:46.669Z,15.20
2022-09-21T19:23:25.081Z,14.80
2022-09-21T19:25:59.473Z,14.35
2022-09-21T19:28:36.315Z,14.27
2022-09-21T19:31:09.718Z,15.27
2022-09-21T19:33:50.089Z,15.65
2022-09-21T19:36:17.792Z,15.77
2022-09-21T19:38:44.554Z,14.60
2022-09-21T19:41:19.752Z,15.23
2022-09-21T19:43:54.539Z,20.52
2022-09-21T19:46:26.276Z,15.05
2022-09-21T19:48:59.865Z,15.70
2022-09-21T19:51:37.666Z,14.25
2022-09-21T19:54:31.152Z,16.38
2022-09-21T19:57:16.603Z,14.70
2022-09-21T19:59:43.620Z,16.02
2022-09-21T20:02:54.005Z,15.70
2022-09-21T20:08:16.395Z,17.15
2022-09-21T20:10:54.111Z,18.70
2022-09-21T20:13:31.769Z,17.80
2022-09-21T20:16:09.066Z,18.83
2022-09-21T20:18:56.180Z,22.73
2022-09-21T20:21:26.186Z,22.92
2022-09-21T20:23:58.754Z,22.85
2022-09-21T20:26:27.350Z,20.17
2022-09-21T20:28:54.355Z,19.67
2022-09-21T20:31:23.286Z,19.95
2022-09-21T20:33:50.338Z,21.63
2022-09-21T20:36:16.799Z,28.83
2022-09-21T20:38:43.966Z,27.50
2022-09-21T20:41:16.385Z,27.92
2022-09-21T20:43:43.098Z,26.92
2022-09-21T20:46:10.795Z,29.58
2022-09-21T20:48:37.647Z,26.80
2022-09-21T20:51:06.261Z,25.00
2022-09-21T20:53:33.728Z,23.70
2022-09-21T20:56:03.668Z,30.50
2022-09-21T20:58:30.852Z,27.35
2022-09-21T21:01:04.028Z,29.42
2022-09-21T21:03:30.549Z,25.45
2022-09-21T21:06:13.945Z,24.95
2022-09-21T21:08:40.629Z,29.95
2022-09-21T21:11:07.158Z,26.73
2022-09-21T21:13:33.834Z,26.55
2022-09-21T21:16:00.271Z,27.92
2022-09-21T21:18:27.829Z,30.42
2022-09-21T21:20:54.294Z,29.55
2022-09-21T21:23:20.636Z,30.42
2022-09-21T21:25:47.939Z,28.55
2022-09-21T21:28:14.674Z,31.02
2022-09-21T21:30:41.028Z,28.30
2022-09-21T21:33:07.393Z,30.58
2022-09-21T21:35:33.842Z,30.65
2022-09-21T21:38:00.240Z,27.63
2022-09-21T21:40:26.630Z,29.23
2022-09-21T21:42:55.524Z,28.45
2022-09-21T21:45:22.055Z,25.83
2022-09-21T21:47:48.390Z,23.05
2022-09-21T21:50:14.822Z,27.98
2022-09-21T21:52:41.221Z,36.15
2022-09-21T21:55:08.123Z,35.92
2022-09-21T21:57:34.799Z,38.25
2022-09-21T22:00:01.431Z,31.40
2022-09-21T22:02:29.517Z,38.92
2022-09-21T22:04:55.976Z,35.10
2022-09-21T22:07:22.349Z,36.15
2022-09-21T22:09:48.690Z,34.65
2022-09-21T22:12:15.601Z,38.30
2022-09-21T22:14:42.014Z,38.25
2022-09-21T22:17:08.376Z,40.47
2022-09-21T22:19:35.280Z,41.55
2022-09-21T22:22:01.604Z,39.75
2022-09-21T22:24:28.050Z,39.55
2022-09-21T22:26:54.454Z,40.33
2022-09-21T22:29:20.816Z,39.45
2022-09-21T22:31:49.032Z,35.67
2022-09-21T22:34:16.201Z,40.95
2022-09-21T22:36:45.757Z,35.78
2022-09-21T22:39:12.804Z,35.92
2022-09-21T22:41:41.253Z,33.83
2022-09-21T22:44:08.056Z,35.25
2022-09-21T22:46:35.048Z,33.88
2022-09-21T22:49:01.501Z,30.30
2022-09-21T22:51:29.039Z,31.27
2022-09-21T22:53:55.725Z,34.67
2022-09-21T22:56:24.489Z,31.60
2022-09-21T22:58:53.446Z,26.27
2022-09-21T23:01:44.665Z,28.27
2022-09-21T23:04:13.171Z,27.42
2022-09-21T23:06:42.142Z,28.10
2022-09-21T23:09:13.467Z,27.98
2022-09-21T23:11:47.437Z,30.88
2022-09-21T23:14:17.036Z,34.22
2022-09-21T23:16:43.625Z,31.90
2022-09-21T23:19:15.449Z,32.78
2022-09-21T23:21:45.844Z,30.35
2022-09-21T23:24:12.920Z,27.23
2022-09-21T23:26:39.639Z,28.23
2022-09-21T23:29:12.035Z,24.98
2022-09-21T23:31:44.441Z,25.58
2022-09-21T23:34:12.658Z,32.60
2022-09-21T23:36:41.019Z,29.08
2022-09-21T23:39:11.459Z,29.27
2022-09-21T23:41:37.855Z,27.00
2022-09-21T23:44:05.900Z,27.83
2022-09-21T23:46:34.786Z,28.58
2022-09-21T23:49:01.883Z,27.15
2022-09-21T23:51:29.920Z,29.45
2022-09-21T23:53:57.323Z,29.48
2022-09-21T23:56:24.342Z,29.23
2022-09-21T23:58:51.066Z,29.83
